Weather at Oslo Gardermoen Airport

Public forecast

Using degrees Celsius for public forecast. Weather courtesy of forecast.io.

Current aviation weather report (METAR) for Oslo Gardermoen Airport

Retrieved 2021/01/15 19:20 UTC (32 minutes ago):

ENGM 151920Z 35002KT 9999 FEW002 M14/M16 Q1027 TEMPO BKN002

Aviation forecast (TAF) for Oslo Gardermoen Airport

Retrieved 2021/01/15 18:57 UTC (55 minutes ago):

TAF ENGM 151700Z 1518/1618 02005KT 9999 OVC002 PROB40 1518/1615 FEW002 PROB40 1615/1618 0500 FZFG VV001